Terminal Aerodrome Forecast
Issued by NWS

Current Version | Previous Version | Graphics & Text | Print | Product List | Glossary On
Versions: 1 2 3 4 5 6 7 8 9 10 11 12 13 14 15 16 17 18 19 20 21 22 23 24 25
622
FTUS41 KPBZ 251038 AAB
TAFMGW
TAF AMD
KMGW 251038Z 2511/2606 VRB03KT 1/4SM FG BKN001
     FM251300 VRB04KT P6SM SCT030=

USA.gov is the U.S. government's official web portal to all federal, state and local government web resources and services.